sensor_id;sensor_type;location;lat;lon;timestamp;P1;durP1;ratioP1;P2;durP2;ratioP2
35048;SDS011;21236;48.740;-3.446;2022-08-11T00:02:27;11.27;;;5.45;;
35048;SDS011;21236;48.740;-3.446;2022-08-11T00:04:55;7.32;;;4.85;;
35048;SDS011;21236;48.740;-3.446;2022-08-11T00:07:22;14.88;;;5.93;;
35048;SDS011;21236;48.740;-3.446;2022-08-11T00:09:49;10.05;;;5.13;;
35048;SDS011;21236;48.740;-3.446;2022-08-11T00:12:16;12.70;;;5.70;;
35048;SDS011;21236;48.740;-3.446;2022-08-11T00:14:42;14.55;;;5.32;;
35048;SDS011;21236;48.740;-3.446;2022-08-11T00:17:12;8.57;;;5.13;;
35048;SDS011;21236;48.740;-3.446;2022-08-11T00:19:43;11.43;;;5.78;;
35048;SDS011;21236;48.740;-3.446;2022-08-11T00:22:10;9.43;;;5.10;;
35048;SDS011;21236;48.740;-3.446;2022-08-11T00:24:37;8.10;;;5.47;;
35048;SDS011;21236;48.740;-3.446;2022-08-11T00:27:04;6.70;;;4.65;;
35048;SDS011;21236;48.740;-3.446;2022-08-11T00:29:30;16.85;;;5.47;;
35048;SDS011;21236;48.740;-3.446;2022-08-11T00:31:57;17.38;;;6.43;;
35048;SDS011;21236;48.740;-3.446;2022-08-11T00:34:30;12.18;;;5.72;;
35048;SDS011;21236;48.740;-3.446;2022-08-11T00:39:23;7.72;;;5.07;;
35048;SDS011;21236;48.740;-3.446;2022-08-11T00:44:37;7.88;;;5.22;;
35048;SDS011;21236;48.740;-3.446;2022-08-11T00:47:14;11.57;;;5.65;;
35048;SDS011;21236;48.740;-3.446;2022-08-11T00:49:44;7.35;;;5.38;;
35048;SDS011;21236;48.740;-3.446;2022-08-11T00:57:42;16.10;;;6.45;;
35048;SDS011;21236;48.740;-3.446;2022-08-11T01:02:44;10.35;;;5.93;;
35048;SDS011;21236;48.740;-3.446;2022-08-11T01:08:06;8.20;;;5.00;;
35048;SDS011;21236;48.740;-3.446;2022-08-11T01:13:33;13.20;;;6.18;;
35048;SDS011;21236;48.740;-3.446;2022-08-11T01:47:12;10.75;;;6.00;;
35048;SDS011;21236;48.740;-3.446;2022-08-11T01:50:04;12.00;;;6.00;;
35048;SDS011;21236;48.740;-3.446;2022-08-11T01:52:34;8.80;;;5.25;;
35048;SDS011;21236;48.740;-3.446;2022-08-11T02:02:32;9.18;;;5.68;;
35048;SDS011;21236;48.740;-3.446;2022-08-11T02:10:53;15.05;;;6.47;;
35048;SDS011;21236;48.740;-3.446;2022-08-11T02:16:20;14.68;;;5.72;;
35048;SDS011;21236;48.740;-3.446;2022-08-11T02:19:35;9.95;;;6.00;;
35048;SDS011;21236;48.740;-3.446;2022-08-11T02:21:59;13.27;;;5.70;;
35048;SDS011;21236;48.740;-3.446;2022-08-11T02:24:52;11.43;;;5.88;;
35048;SDS011;21236;48.740;-3.446;2022-08-11T02:27:22;8.88;;;5.45;;
35048;SDS011;21236;48.740;-3.446;2022-08-11T02:30:02;12.30;;;5.82;;
35048;SDS011;21236;48.740;-3.446;2022-08-11T02:32:45;13.18;;;6.20;;
35048;SDS011;21236;48.740;-3.446;2022-08-11T02:35:34;9.55;;;5.93;;
35048;SDS011;21236;48.740;-3.446;2022-08-11T02:45:52;16.50;;;6.40;;
35048;SDS011;21236;48.740;-3.446;2022-08-11T02:54:03;9.32;;;6.13;;
35048;SDS011;21236;48.740;-3.446;2022-08-11T02:56:36;8.15;;;6.05;;
35048;SDS011;21236;48.740;-3.446;2022-08-11T03:07:40;13.68;;;6.60;;
35048;SDS011;21236;48.740;-3.446;2022-08-11T03:10:24;9.77;;;7.30;;
35048;SDS011;21236;48.740;-3.446;2022-08-11T03:15:45;8.80;;;6.25;;
35048;SDS011;21236;48.740;-3.446;2022-08-11T03:18:33;11.90;;;6.68;;
35048;SDS011;21236;48.740;-3.446;2022-08-11T03:21:16;11.02;;;6.28;;
35048;SDS011;21236;48.740;-3.446;2022-08-11T03:23:57;10.27;;;6.18;;
35048;SDS011;21236;48.740;-3.446;2022-08-11T03:26:30;12.50;;;5.60;;
35048;SDS011;21236;48.740;-3.446;2022-08-11T03:34:26;11.70;;;6.85;;
35048;SDS011;21236;48.740;-3.446;2022-08-11T03:39:47;10.93;;;6.57;;
35048;SDS011;21236;48.740;-3.446;2022-08-11T03:52:47;15.20;;;6.45;;
35048;SDS011;21236;48.740;-3.446;2022-08-11T04:00:29;11.95;;;6.50;;
35048;SDS011;21236;48.740;-3.446;2022-08-11T04:36:59;11.20;;;6.90;;
35048;SDS011;21236;48.740;-3.446;2022-08-11T04:54:07;12.15;;;6.55;;
35048;SDS011;21236;48.740;-3.446;2022-08-11T04:56:57;14.93;;;6.30;;
35048;SDS011;21236;48.740;-3.446;2022-08-11T05:05:20;9.77;;;6.65;;
35048;SDS011;21236;48.740;-3.446;2022-08-11T05:16:14;10.35;;;6.25;;
35048;SDS011;21236;48.740;-3.446;2022-08-11T05:19:00;11.45;;;6.80;;
35048;SDS011;21236;48.740;-3.446;2022-08-11T05:21:47;10.55;;;6.82;;
35048;SDS011;21236;48.740;-3.446;2022-08-11T05:24:42;8.85;;;6.40;;
35048;SDS011;21236;48.740;-3.446;2022-08-11T05:27:29;8.25;;;5.95;;
35048;SDS011;21236;48.740;-3.446;2022-08-11T05:30:15;15.38;;;6.57;;
35048;SDS011;21236;48.740;-3.446;2022-08-11T05:33:09;13.90;;;6.53;;
35048;SDS011;21236;48.740;-3.446;2022-08-11T05:36:06;15.07;;;6.75;;
35048;SDS011;21236;48.740;-3.446;2022-08-11T05:38:34;13.05;;;6.32;;
35048;SDS011;21236;48.740;-3.446;2022-08-11T05:41:23;11.38;;;6.47;;
35048;SDS011;21236;48.740;-3.446;2022-08-11T05:44:08;10.50;;;6.45;;
35048;SDS011;21236;48.740;-3.446;2022-08-11T05:46:53;19.20;;;6.95;;
35048;SDS011;21236;48.740;-3.446;2022-08-11T05:49:38;19.92;;;8.43;;
35048;SDS011;21236;48.740;-3.446;2022-08-11T05:52:25;28.05;;;11.38;;
35048;SDS011;21236;48.740;-3.446;2022-08-11T05:55:11;29.95;;;14.05;;
35048;SDS011;21236;48.740;-3.446;2022-08-11T05:57:59;27.88;;;11.50;;
35048;SDS011;21236;48.740;-3.446;2022-08-11T06:00:26;22.27;;;11.35;;
35048;SDS011;21236;48.740;-3.446;2022-08-11T06:02:53;20.05;;;12.90;;
35048;SDS011;21236;48.740;-3.446;2022-08-11T06:05:23;22.27;;;11.65;;
35048;SDS011;21236;48.740;-3.446;2022-08-11T06:07:51;26.65;;;11.15;;
35048;SDS011;21236;48.740;-3.446;2022-08-11T06:13:14;22.85;;;13.48;;
35048;SDS011;21236;48.740;-3.446;2022-08-11T06:15:44;26.65;;;13.63;;
35048;SDS011;21236;48.740;-3.446;2022-08-11T06:18:11;27.23;;;13.13;;
35048;SDS011;21236;48.740;-3.446;2022-08-11T06:20:48;22.17;;;12.55;;
35048;SDS011;21236;48.740;-3.446;2022-08-11T06:23:15;28.98;;;13.80;;
35048;SDS011;21236;48.740;-3.446;2022-08-11T06:25:43;26.25;;;13.75;;
35048;SDS011;21236;48.740;-3.446;2022-08-11T06:28:10;24.30;;;13.10;;
35048;SDS011;21236;48.740;-3.446;2022-08-11T06:30:38;23.92;;;13.43;;
35048;SDS011;21236;48.740;-3.446;2022-08-11T06:33:12;24.60;;;13.18;;
35048;SDS011;21236;48.740;-3.446;2022-08-11T06:41:16;20.67;;;11.40;;
35048;SDS011;21236;48.740;-3.446;2022-08-11T06:46:24;24.23;;;11.38;;
35048;SDS011;21236;48.740;-3.446;2022-08-11T06:48:51;19.20;;;11.55;;
35048;SDS011;21236;48.740;-3.446;2022-08-11T06:51:18;24.52;;;11.45;;
35048;SDS011;21236;48.740;-3.446;2022-08-11T06:53:46;29.38;;;13.77;;
35048;SDS011;21236;48.740;-3.446;2022-08-11T06:56:13;22.15;;;12.30;;
35048;SDS011;21236;48.740;-3.446;2022-08-11T06:58:59;20.58;;;12.95;;
35048;SDS011;21236;48.740;-3.446;2022-08-11T07:02:30;24.02;;;12.65;;
35048;SDS011;21236;48.740;-3.446;2022-08-11T07:04:34;27.77;;;13.07;;
35048;SDS011;21236;48.740;-3.446;2022-08-11T07:12:53;21.95;;;13.38;;
35048;SDS011;21236;48.740;-3.446;2022-08-11T07:15:40;28.70;;;13.13;;
35048;SDS011;21236;48.740;-3.446;2022-08-11T07:18:07;25.70;;;13.30;;
35048;SDS011;21236;48.740;-3.446;2022-08-11T07:20:53;26.58;;;13.40;;
35048;SDS011;21236;48.740;-3.446;2022-08-11T07:23:38;28.73;;;12.07;;
35048;SDS011;21236;48.740;-3.446;2022-08-11T07:26:23;32.85;;;14.40;;
35048;SDS011;21236;48.740;-3.446;2022-08-11T07:29:10;24.65;;;11.43;;
35048;SDS011;21236;48.740;-3.446;2022-08-11T07:31:41;34.60;;;13.70;;
35048;SDS011;21236;48.740;-3.446;2022-08-11T07:36:51;25.17;;;12.68;;
35048;SDS011;21236;48.740;-3.446;2022-08-11T07:39:23;33.83;;;12.90;;
35048;SDS011;21236;48.740;-3.446;2022-08-11T07:41:50;39.95;;;12.30;;
35048;SDS011;21236;48.740;-3.446;2022-08-11T07:44:17;31.08;;;13.57;;
35048;SDS011;21236;48.740;-3.446;2022-08-11T07:46:45;32.70;;;12.52;;
35048;SDS011;21236;48.740;-3.446;2022-08-11T07:49:32;39.67;;;13.45;;
35048;SDS011;21236;48.740;-3.446;2022-08-11T07:52:18;26.40;;;11.90;;
35048;SDS011;21236;48.740;-3.446;2022-08-11T07:55:04;33.35;;;14.50;;
35048;SDS011;21236;48.740;-3.446;2022-08-11T07:57:31;25.10;;;10.77;;
35048;SDS011;21236;48.740;-3.446;2022-08-11T08:00:17;28.42;;;11.65;;
35048;SDS011;21236;48.740;-3.446;2022-08-11T08:03:03;35.40;;;10.93;;
35048;SDS011;21236;48.740;-3.446;2022-08-11T08:05:48;23.27;;;11.43;;
35048;SDS011;21236;48.740;-3.446;2022-08-11T08:08:33;23.30;;;10.35;;
35048;SDS011;21236;48.740;-3.446;2022-08-11T08:11:19;27.40;;;9.98;;
35048;SDS011;21236;48.740;-3.446;2022-08-11T08:14:05;30.23;;;10.77;;
35048;SDS011;21236;48.740;-3.446;2022-08-11T08:16:51;27.30;;;10.70;;
35048;SDS011;21236;48.740;-3.446;2022-08-11T08:19:35;23.52;;;10.18;;
35048;SDS011;21236;48.740;-3.446;2022-08-11T08:22:02;25.08;;;9.65;;
35048;SDS011;21236;48.740;-3.446;2022-08-11T08:24:28;26.95;;;9.52;;
35048;SDS011;21236;48.740;-3.446;2022-08-11T08:26:56;29.33;;;8.65;;
35048;SDS011;21236;48.740;-3.446;2022-08-11T08:29:24;23.13;;;8.32;;
35048;SDS011;21236;48.740;-3.446;2022-08-11T08:32:09;26.08;;;8.93;;
35048;SDS011;21236;48.740;-3.446;2022-08-11T08:34:36;25.10;;;8.65;;
35048;SDS011;21236;48.740;-3.446;2022-08-11T08:37:02;24.25;;;8.18;;
35048;SDS011;21236;48.740;-3.446;2022-08-11T08:39:29;17.17;;;8.05;;
35048;SDS011;21236;48.740;-3.446;2022-08-11T08:41:58;23.23;;;7.75;;
35048;SDS011;21236;48.740;-3.446;2022-08-11T08:44:27;35.67;;;8.98;;
35048;SDS011;21236;48.740;-3.446;2022-08-11T08:46:56;19.95;;;8.57;;
35048;SDS011;21236;48.740;-3.446;2022-08-11T08:49:33;19.52;;;7.50;;
35048;SDS011;21236;48.740;-3.446;2022-08-11T08:52:03;21.98;;;7.97;;
35048;SDS011;21236;48.740;-3.446;2022-08-11T08:54:34;18.50;;;7.63;;
35048;SDS011;21236;48.740;-3.446;2022-08-11T08:57:01;17.90;;;6.72;;
35048;SDS011;21236;48.740;-3.446;2022-08-11T08:59:29;15.27;;;6.60;;
35048;SDS011;21236;48.740;-3.446;2022-08-11T09:01:57;13.25;;;7.15;;
35048;SDS011;21236;48.740;-3.446;2022-08-11T09:04:24;19.23;;;7.22;;
35048;SDS011;21236;48.740;-3.446;2022-08-11T09:06:52;16.55;;;6.72;;
35048;SDS011;21236;48.740;-3.446;2022-08-11T09:09:19;13.20;;;6.43;;
35048;SDS011;21236;48.740;-3.446;2022-08-11T09:11:46;26.13;;;7.63;;
35048;SDS011;21236;48.740;-3.446;2022-08-11T09:14:16;18.83;;;6.80;;
35048;SDS011;21236;48.740;-3.446;2022-08-11T09:16:42;19.27;;;6.18;;
35048;SDS011;21236;48.740;-3.446;2022-08-11T09:19:12;19.00;;;6.85;;
35048;SDS011;21236;48.740;-3.446;2022-08-11T09:21:41;15.85;;;5.38;;
35048;SDS011;21236;48.740;-3.446;2022-08-11T09:24:08;17.33;;;5.95;;
35048;SDS011;21236;48.740;-3.446;2022-08-11T09:26:53;20.08;;;5.38;;
35048;SDS011;21236;48.740;-3.446;2022-08-11T09:29:27;13.48;;;6.32;;
35048;SDS011;21236;48.740;-3.446;2022-08-11T09:31:54;19.00;;;5.60;;
35048;SDS011;21236;48.740;-3.446;2022-08-11T09:34:21;12.52;;;4.95;;
35048;SDS011;21236;48.740;-3.446;2022-08-11T09:36:47;13.25;;;4.55;;
35048;SDS011;21236;48.740;-3.446;2022-08-11T09:39:34;16.02;;;5.03;;
35048;SDS011;21236;48.740;-3.446;2022-08-11T09:42:19;17.05;;;9.13;;
35048;SDS011;21236;48.740;-3.446;2022-08-11T09:44:47;32.28;;;15.45;;
35048;SDS011;21236;48.740;-3.446;2022-08-11T09:47:23;34.75;;;6.97;;
35048;SDS011;21236;48.740;-3.446;2022-08-11T09:49:51;35.13;;;11.82;;
35048;SDS011;21236;48.740;-3.446;2022-08-11T09:52:18;18.05;;;7.82;;
35048;SDS011;21236;48.740;-3.446;2022-08-11T09:54:46;22.77;;;9.93;;
35048;SDS011;21236;48.740;-3.446;2022-08-11T09:57:12;26.08;;;11.48;;
35048;SDS011;21236;48.740;-3.446;2022-08-11T09:59:57;12.85;;;5.75;;
35048;SDS011;21236;48.740;-3.446;2022-08-11T10:02:26;17.67;;;5.95;;
35048;SDS011;21236;48.740;-3.446;2022-08-11T10:04:55;12.60;;;4.88;;
35048;SDS011;21236;48.740;-3.446;2022-08-11T10:07:45;17.85;;;5.75;;
35048;SDS011;21236;48.740;-3.446;2022-08-11T10:10:15;32.95;;;5.35;;
35048;SDS011;21236;48.740;-3.446;2022-08-11T10:15:15;18.33;;;5.78;;
35048;SDS011;21236;48.740;-3.446;2022-08-11T10:18:07;17.92;;;5.75;;
35048;SDS011;21236;48.740;-3.446;2022-08-11T10:20:59;21.00;;;6.40;;
35048;SDS011;21236;48.740;-3.446;2022-08-11T10:23:27;25.67;;;5.72;;
35048;SDS011;21236;48.740;-3.446;2022-08-11T10:26:12;18.13;;;5.57;;
35048;SDS011;21236;48.740;-3.446;2022-08-11T10:28:57;23.48;;;5.97;;
35048;SDS011;21236;48.740;-3.446;2022-08-11T10:31:25;21.90;;;5.68;;
35048;SDS011;21236;48.740;-3.446;2022-08-11T10:34:09;19.92;;;5.85;;
35048;SDS011;21236;48.740;-3.446;2022-08-11T10:36:38;19.77;;;5.22;;
35048;SDS011;21236;48.740;-3.446;2022-08-11T10:39:14;20.75;;;5.32;;
35048;SDS011;21236;48.740;-3.446;2022-08-11T10:41:43;17.02;;;5.80;;
35048;SDS011;21236;48.740;-3.446;2022-08-11T10:44:29;19.48;;;5.97;;
35048;SDS011;21236;48.740;-3.446;2022-08-11T10:46:58;19.65;;;5.35;;
35048;SDS011;21236;48.740;-3.446;2022-08-11T10:49:43;27.08;;;6.47;;
35048;SDS011;21236;48.740;-3.446;2022-08-11T10:52:29;19.15;;;4.53;;
35048;SDS011;21236;48.740;-3.446;2022-08-11T10:55:15;11.05;;;4.63;;
35048;SDS011;21236;48.740;-3.446;2022-08-11T10:58:00;12.00;;;4.28;;
35048;SDS011;21236;48.740;-3.446;2022-08-11T11:00:45;13.00;;;4.55;;
35048;SDS011;21236;48.740;-3.446;2022-08-11T11:03:11;12.52;;;4.30;;
35048;SDS011;21236;48.740;-3.446;2022-08-11T11:05:38;13.18;;;4.45;;
35048;SDS011;21236;48.740;-3.446;2022-08-11T11:08:09;10.00;;;4.70;;
35048;SDS011;21236;48.740;-3.446;2022-08-11T11:10:57;14.23;;;4.05;;
35048;SDS011;21236;48.740;-3.446;2022-08-11T11:13:23;9.07;;;3.72;;
35048;SDS011;21236;48.740;-3.446;2022-08-11T11:16:08;15.93;;;3.90;;
35048;SDS011;21236;48.740;-3.446;2022-08-11T11:18:54;10.93;;;3.45;;
35048;SDS011;21236;48.740;-3.446;2022-08-11T11:21:23;8.85;;;3.78;;
35048;SDS011;21236;48.740;-3.446;2022-08-11T11:24:24;8.80;;;3.95;;
35048;SDS011;21236;48.740;-3.446;2022-08-11T11:29:14;9.63;;;3.17;;
35048;SDS011;21236;48.740;-3.446;2022-08-11T11:37:14;9.50;;;3.40;;
35048;SDS011;21236;48.740;-3.446;2022-08-11T11:39:41;10.70;;;3.17;;
35048;SDS011;21236;48.740;-3.446;2022-08-11T11:42:08;9.45;;;3.33;;
35048;SDS011;21236;48.740;-3.446;2022-08-11T11:44:39;5.75;;;2.88;;
35048;SDS011;21236;48.740;-3.446;2022-08-11T11:47:09;7.60;;;3.10;;
35048;SDS011;21236;48.740;-3.446;2022-08-11T11:49:36;8.88;;;2.90;;
35048;SDS011;21236;48.740;-3.446;2022-08-11T11:52:07;17.38;;;3.25;;
35048;SDS011;21236;48.740;-3.446;2022-08-11T11:54:34;5.45;;;2.38;;
35048;SDS011;21236;48.740;-3.446;2022-08-11T11:57:03;16.33;;;3.53;;
35048;SDS011;21236;48.740;-3.446;2022-08-11T11:59:49;6.70;;;2.58;;
35048;SDS011;21236;48.740;-3.446;2022-08-11T12:02:37;9.60;;;3.15;;
35048;SDS011;21236;48.740;-3.446;2022-08-11T12:05:05;7.07;;;3.00;;
35048;SDS011;21236;48.740;-3.446;2022-08-11T12:07:32;5.00;;;2.97;;
35048;SDS011;21236;48.740;-3.446;2022-08-11T12:10:18;6.95;;;3.10;;
35048;SDS011;21236;48.740;-3.446;2022-08-11T12:12:44;9.35;;;2.92;;
35048;SDS011;21236;48.740;-3.446;2022-08-11T12:15:30;6.35;;;2.97;;
35048;SDS011;21236;48.740;-3.446;2022-08-11T12:17:56;8.00;;;3.40;;
35048;SDS011;21236;48.740;-3.446;2022-08-11T12:20:23;5.55;;;3.10;;
35048;SDS011;21236;48.740;-3.446;2022-08-11T12:22:49;5.70;;;3.13;;
35048;SDS011;21236;48.740;-3.446;2022-08-11T12:25:34;4.82;;;2.75;;
35048;SDS011;21236;48.740;-3.446;2022-08-11T12:28:19;4.75;;;2.72;;
35048;SDS011;21236;48.740;-3.446;2022-08-11T12:30:47;16.13;;;4.25;;
35048;SDS011;21236;48.740;-3.446;2022-08-11T12:33:14;14.05;;;3.40;;
35048;SDS011;21236;48.740;-3.446;2022-08-11T12:35:40;14.20;;;4.32;;
35048;SDS011;21236;48.740;-3.446;2022-08-11T12:38:06;11.95;;;3.58;;
35048;SDS011;21236;48.740;-3.446;2022-08-11T12:40:34;8.82;;;4.00;;
35048;SDS011;21236;48.740;-3.446;2022-08-11T12:43:20;12.77;;;4.68;;
35048;SDS011;21236;48.740;-3.446;2022-08-11T12:46:09;8.15;;;3.30;;
35048;SDS011;21236;48.740;-3.446;2022-08-11T12:48:40;8.73;;;3.38;;
35048;SDS011;21236;48.740;-3.446;2022-08-11T12:51:26;7.18;;;3.97;;
35048;SDS011;21236;48.740;-3.446;2022-08-11T12:54:12;10.55;;;4.15;;
35048;SDS011;21236;48.740;-3.446;2022-08-11T12:56:49;9.00;;;3.88;;
35048;SDS011;21236;48.740;-3.446;2022-08-11T12:59:38;12.63;;;3.60;;
35048;SDS011;21236;48.740;-3.446;2022-08-11T13:02:24;12.70;;;4.03;;
35048;SDS011;21236;48.740;-3.446;2022-08-11T13:05:11;13.30;;;4.63;;
35048;SDS011;21236;48.740;-3.446;2022-08-11T13:07:37;7.43;;;4.07;;
35048;SDS011;21236;48.740;-3.446;2022-08-11T13:10:05;9.27;;;3.83;;
35048;SDS011;21236;48.740;-3.446;2022-08-11T13:12:31;10.88;;;4.20;;
35048;SDS011;21236;48.740;-3.446;2022-08-11T13:15:18;14.40;;;4.70;;
35048;SDS011;21236;48.740;-3.446;2022-08-11T13:17:45;13.02;;;4.22;;
35048;SDS011;21236;48.740;-3.446;2022-08-11T13:20:13;16.80;;;5.15;;
35048;SDS011;21236;48.740;-3.446;2022-08-11T13:22:41;13.60;;;4.30;;
35048;SDS011;21236;48.740;-3.446;2022-08-11T13:25:12;10.73;;;4.45;;
35048;SDS011;21236;48.740;-3.446;2022-08-11T13:27:40;14.68;;;5.25;;
35048;SDS011;21236;48.740;-3.446;2022-08-11T13:30:07;14.57;;;4.32;;
35048;SDS011;21236;48.740;-3.446;2022-08-11T13:32:51;14.38;;;4.55;;
35048;SDS011;21236;48.740;-3.446;2022-08-11T13:35:18;14.35;;;4.53;;
35048;SDS011;21236;48.740;-3.446;2022-08-11T13:37:45;13.88;;;4.13;;
35048;SDS011;21236;48.740;-3.446;2022-08-11T13:40:13;13.73;;;4.28;;
35048;SDS011;21236;48.740;-3.446;2022-08-11T13:42:41;13.20;;;4.75;;
35048;SDS011;21236;48.740;-3.446;2022-08-11T13:45:08;19.17;;;5.47;;
35048;SDS011;21236;48.740;-3.446;2022-08-11T13:47:35;11.20;;;4.72;;
35048;SDS011;21236;48.740;-3.446;2022-08-11T13:50:02;13.20;;;4.57;;
35048;SDS011;21236;48.740;-3.446;2022-08-11T13:52:29;15.50;;;5.22;;
35048;SDS011;21236;48.740;-3.446;2022-08-11T13:54:55;13.35;;;4.65;;
35048;SDS011;21236;48.740;-3.446;2022-08-11T13:57:21;11.77;;;4.32;;
35048;SDS011;21236;48.740;-3.446;2022-08-11T13:59:52;15.07;;;4.75;;
35048;SDS011;21236;48.740;-3.446;2022-08-11T14:02:20;14.77;;;5.05;;
35048;SDS011;21236;48.740;-3.446;2022-08-11T14:04:49;11.07;;;4.03;;
35048;SDS011;21236;48.740;-3.446;2022-08-11T14:07:19;11.77;;;4.30;;
35048;SDS011;21236;48.740;-3.446;2022-08-11T14:09:52;11.60;;;3.90;;
35048;SDS011;21236;48.740;-3.446;2022-08-11T14:12:22;18.23;;;4.83;;
35048;SDS011;21236;48.740;-3.446;2022-08-11T14:17:43;16.67;;;5.45;;
35048;SDS011;21236;48.740;-3.446;2022-08-11T14:20:10;22.27;;;5.25;;
35048;SDS011;21236;48.740;-3.446;2022-08-11T14:22:38;13.43;;;4.95;;
35048;SDS011;21236;48.740;-3.446;2022-08-11T14:25:06;20.00;;;4.57;;
35048;SDS011;21236;48.740;-3.446;2022-08-11T14:27:32;10.23;;;3.70;;
35048;SDS011;21236;48.740;-3.446;2022-08-11T14:29:58;14.32;;;4.13;;
35048;SDS011;21236;48.740;-3.446;2022-08-11T14:32:25;17.25;;;4.60;;
35048;SDS011;21236;48.740;-3.446;2022-08-11T14:34:52;13.45;;;4.15;;
35048;SDS011;21236;48.740;-3.446;2022-08-11T14:37:19;10.45;;;4.13;;
35048;SDS011;21236;48.740;-3.446;2022-08-11T14:39:47;15.13;;;4.35;;
35048;SDS011;21236;48.740;-3.446;2022-08-11T14:42:15;9.80;;;4.28;;
35048;SDS011;21236;48.740;-3.446;2022-08-11T14:45:07;10.02;;;4.20;;
35048;SDS011;21236;48.740;-3.446;2022-08-11T14:47:54;14.85;;;4.57;;
35048;SDS011;21236;48.740;-3.446;2022-08-11T14:50:22;13.77;;;5.00;;
35048;SDS011;21236;48.740;-3.446;2022-08-11T14:52:53;12.85;;;4.35;;
35048;SDS011;21236;48.740;-3.446;2022-08-11T14:55:21;13.88;;;4.15;;
35048;SDS011;21236;48.740;-3.446;2022-08-11T14:58:10;8.18;;;3.92;;
35048;SDS011;21236;48.740;-3.446;2022-08-11T15:00:38;14.18;;;4.38;;
35048;SDS011;21236;48.740;-3.446;2022-08-11T15:03:06;16.55;;;3.90;;
35048;SDS011;21236;48.740;-3.446;2022-08-11T15:05:37;11.00;;;4.47;;
35048;SDS011;21236;48.740;-3.446;2022-08-11T15:08:05;12.73;;;4.30;;
35048;SDS011;21236;48.740;-3.446;2022-08-11T15:10:31;10.77;;;4.70;;
35048;SDS011;21236;48.740;-3.446;2022-08-11T15:12:58;19.33;;;4.90;;
35048;SDS011;21236;48.740;-3.446;2022-08-11T15:15:25;14.68;;;5.03;;
35048;SDS011;21236;48.740;-3.446;2022-08-11T15:18:11;11.88;;;4.65;;
35048;SDS011;21236;48.740;-3.446;2022-08-11T15:20:41;15.50;;;4.90;;
35048;SDS011;21236;48.740;-3.446;2022-08-11T15:23:26;13.50;;;4.93;;
35048;SDS011;21236;48.740;-3.446;2022-08-11T15:26:15;17.88;;;4.53;;
35048;SDS011;21236;48.740;-3.446;2022-08-11T15:28:47;14.20;;;4.57;;
35048;SDS011;21236;48.740;-3.446;2022-08-11T15:31:32;14.18;;;4.80;;
35048;SDS011;21236;48.740;-3.446;2022-08-11T15:34:10;17.48;;;7.28;;
35048;SDS011;21236;48.740;-3.446;2022-08-11T15:36:57;16.40;;;5.72;;
35048;SDS011;21236;48.740;-3.446;2022-08-11T15:39:49;17.70;;;5.15;;
35048;SDS011;21236;48.740;-3.446;2022-08-11T15:42:38;14.65;;;4.57;;
35048;SDS011;21236;48.740;-3.446;2022-08-11T15:45:24;12.60;;;4.80;;
35048;SDS011;21236;48.740;-3.446;2022-08-11T15:48:10;14.25;;;3.95;;
35048;SDS011;21236;48.740;-3.446;2022-08-11T15:50:39;11.43;;;4.00;;
35048;SDS011;21236;48.740;-3.446;2022-08-11T15:53:07;14.45;;;4.30;;
35048;SDS011;21236;48.740;-3.446;2022-08-11T15:55:36;13.20;;;4.43;;
35048;SDS011;21236;48.740;-3.446;2022-08-11T15:58:05;10.20;;;4.15;;
35048;SDS011;21236;48.740;-3.446;2022-08-11T16:00:50;13.02;;;4.22;;
35048;SDS011;21236;48.740;-3.446;2022-08-11T16:03:41;13.68;;;3.97;;
35048;SDS011;21236;48.740;-3.446;2022-08-11T16:08:55;18.10;;;5.15;;
35048;SDS011;21236;48.740;-3.446;2022-08-11T16:11:23;16.05;;;4.88;;
35048;SDS011;21236;48.740;-3.446;2022-08-11T16:13:51;12.02;;;4.53;;
35048;SDS011;21236;48.740;-3.446;2022-08-11T16:16:36;15.18;;;4.15;;
35048;SDS011;21236;48.740;-3.446;2022-08-11T16:19:03;13.80;;;4.50;;
35048;SDS011;21236;48.740;-3.446;2022-08-11T16:21:34;14.15;;;4.63;;
35048;SDS011;21236;48.740;-3.446;2022-08-11T16:24:01;11.55;;;3.58;;
35048;SDS011;21236;48.740;-3.446;2022-08-11T16:26:29;9.13;;;3.67;;
35048;SDS011;21236;48.740;-3.446;2022-08-11T16:28:56;11.70;;;3.75;;
35048;SDS011;21236;48.740;-3.446;2022-08-11T16:31:23;8.50;;;3.80;;
35048;SDS011;21236;48.740;-3.446;2022-08-11T16:33:50;11.80;;;3.60;;
35048;SDS011;21236;48.740;-3.446;2022-08-11T16:36:17;9.82;;;3.83;;
35048;SDS011;21236;48.740;-3.446;2022-08-11T16:39:03;11.20;;;3.90;;
35048;SDS011;21236;48.740;-3.446;2022-08-11T16:41:30;11.20;;;3.90;;
35048;SDS011;21236;48.740;-3.446;2022-08-11T16:44:17;7.50;;;3.45;;
35048;SDS011;21236;48.740;-3.446;2022-08-11T16:47:02;11.93;;;3.95;;
35048;SDS011;21236;48.740;-3.446;2022-08-11T16:49:37;10.48;;;3.80;;
35048;SDS011;21236;48.740;-3.446;2022-08-11T16:52:07;10.27;;;3.20;;
35048;SDS011;21236;48.740;-3.446;2022-08-11T16:54:36;9.48;;;3.28;;
35048;SDS011;21236;48.740;-3.446;2022-08-11T16:57:04;10.18;;;3.28;;
35048;SDS011;21236;48.740;-3.446;2022-08-11T16:59:50;11.60;;;3.78;;
35048;SDS011;21236;48.740;-3.446;2022-08-11T17:02:18;10.68;;;3.70;;
35048;SDS011;21236;48.740;-3.446;2022-08-11T17:05:12;13.95;;;3.72;;
35048;SDS011;21236;48.740;-3.446;2022-08-11T17:07:59;10.60;;;3.83;;
35048;SDS011;21236;48.740;-3.446;2022-08-11T17:10:48;9.48;;;3.80;;
35048;SDS011;21236;48.740;-3.446;2022-08-11T17:13:39;14.15;;;4.72;;
35048;SDS011;21236;48.740;-3.446;2022-08-11T17:16:09;8.10;;;3.42;;
35048;SDS011;21236;48.740;-3.446;2022-08-11T17:21:13;12.70;;;3.78;;
35048;SDS011;21236;48.740;-3.446;2022-08-11T17:23:40;11.25;;;4.07;;
35048;SDS011;21236;48.740;-3.446;2022-08-11T17:26:13;9.40;;;3.53;;
35048;SDS011;21236;48.740;-3.446;2022-08-11T17:28:39;12.10;;;4.35;;
35048;SDS011;21236;48.740;-3.446;2022-08-11T17:31:06;11.23;;;4.32;;
35048;SDS011;21236;48.740;-3.446;2022-08-11T17:33:52;15.18;;;4.38;;
35048;SDS011;21236;48.740;-3.446;2022-08-11T17:36:39;11.75;;;5.00;;
35048;SDS011;21236;48.740;-3.446;2022-08-11T17:39:09;11.70;;;4.40;;
35048;SDS011;21236;48.740;-3.446;2022-08-11T17:41:36;14.57;;;5.22;;
35048;SDS011;21236;48.740;-3.446;2022-08-11T17:44:21;10.80;;;4.60;;
35048;SDS011;21236;48.740;-3.446;2022-08-11T17:47:06;14.35;;;4.45;;
35048;SDS011;21236;48.740;-3.446;2022-08-11T17:49:50;12.20;;;4.95;;
35048;SDS011;21236;48.740;-3.446;2022-08-11T17:52:17;12.10;;;4.32;;
35048;SDS011;21236;48.740;-3.446;2022-08-11T17:55:03;16.80;;;5.00;;
35048;SDS011;21236;48.740;-3.446;2022-08-11T17:57:48;16.42;;;5.45;;
35048;SDS011;21236;48.740;-3.446;2022-08-11T18:00:33;12.05;;;4.75;;
35048;SDS011;21236;48.740;-3.446;2022-08-11T18:02:59;12.30;;;4.55;;
35048;SDS011;21236;48.740;-3.446;2022-08-11T18:05:45;14.48;;;4.70;;
35048;SDS011;21236;48.740;-3.446;2022-08-11T18:08:13;14.27;;;4.65;;
35048;SDS011;21236;48.740;-3.446;2022-08-11T18:10:58;19.70;;;4.68;;
35048;SDS011;21236;48.740;-3.446;2022-08-11T18:13:44;13.27;;;3.97;;
35048;SDS011;21236;48.740;-3.446;2022-08-11T18:16:30;13.55;;;4.55;;
35048;SDS011;21236;48.740;-3.446;2022-08-11T18:19:15;13.98;;;4.72;;
35048;SDS011;21236;48.740;-3.446;2022-08-11T18:22:03;10.20;;;4.03;;
35048;SDS011;21236;48.740;-3.446;2022-08-11T18:24:52;14.90;;;4.55;;
35048;SDS011;21236;48.740;-3.446;2022-08-11T18:27:39;10.60;;;3.58;;
35048;SDS011;21236;48.740;-3.446;2022-08-11T18:30:25;16.35;;;4.65;;
35048;SDS011;21236;48.740;-3.446;2022-08-11T18:33:12;9.05;;;4.30;;
35048;SDS011;21236;48.740;-3.446;2022-08-11T18:35:58;11.07;;;3.95;;
35048;SDS011;21236;48.740;-3.446;2022-08-11T18:38:45;7.88;;;3.90;;
35048;SDS011;21236;48.740;-3.446;2022-08-11T18:41:30;9.18;;;4.32;;
35048;SDS011;21236;48.740;-3.446;2022-08-11T18:44:16;14.68;;;4.22;;